National Geographic Sea Bird — WAK8004 — position and weather

sailwx.info

Track history (hours):
 
Tides and Currents Weather Stations Pressure Air Temp Water Temp Dewpoint Dewpoint Depression Visibility Wind Speed Wind Dir Waves Ship Positions

National Geographic Sea Bird

Owner: Lindblad Expeditions LLC, SEATTLE, WA. More information available from US FCC via Universal Licensing System and Coast Guard Vessel Documentation Center.

Last reported at 2019-Jun-13 08:34 UTC. Time now 2019-Jun-16 15:04 UTC.
Position N 58°13' W 135°32'.

Length 50 m; draft 2.7 m.

Type: Passenger vessel. MMSI: 366892350.

Date/timePositionNaut miles runAvg speedWind from/ knotsBaromVisibWave heightAir tempDewpointWater temp
2019-Jun-13 08:34N 58°13' W 135°32'2 9.5
2019-Jun-13 08:21N 58°14' W 135°36'4 9.7
2019-Jun-13 07:59N 58°16' W 135°42'4 8.7
2019-Jun-13 07:30N 58°18' W 135°48'4 9.0
2019-Jun-13 07:01N 58°19' W 135°57'4 8.7
2019-Jun-13 06:30N 58°19' W 136°05'8 0.6
2019-Jun-12 15:52N 58°17' W 136°21'410.2
2019-Jun-12 15:27N 58°16' W 136°13'4 7.9
2019-Jun-12 15:00N 58°15' W 136°06'3 6.4
2019-Jun-12 14:30N 58°16' W 136°00'4 8.8
2019-Jun-12 14:00N 58°17' W 135°52'4 8.0
2019-Jun-12 13:30N 58°18' W 135°45'510.3
2019-Jun-12 12:59N 58°16' W 135°35'  
2019-Jun-07 05:32N 58°11' W 135°24'410.1
2019-Jun-07 05:08N 58°13' W 135°31'210.0
2019-Jun-07 04:58N 58°14' W 135°34'510.0
2019-Jun-07 04:29N 58°16' W 135°42'4 8.9
2019-Jun-07 04:00N 58°17' W 135°49'4 8.6
2019-Jun-07 03:30N 58°15' W 135°56'4 8.5
2019-Jun-07 02:59N 58°14' W 136°04'7 8.6
2019-Jun-07 02:11N 58°16' W 136°16'2 8.5
2019-Jun-07 01:58N 58°17' W 136°20'2 0.2
2019-Jun-06 13:53N 58°18' W 136°17'3 8.4
2019-Jun-06 13:30N 58°19' W 136°11'5 9.3
2019-Jun-06 13:00N 58°20' W 136°02'4 8.6
2019-Jun-06 12:30N 58°19' W 135°54'4 7.7
2019-Jun-06 12:00N 58°18' W 135°47'4 8.0
2019-Jun-06 11:30N 58°16' W 135°40'4 8.6
2019-Jun-06 11:00N 58°14' W 135°33'5 9.8
2019-Jun-06 10:29N 58°11' W 135°25'  
Track history (hours):
 
Tides and Currents Weather Stations Pressure Air Temp Water Temp Dewpoint Dewpoint Depression Visibility Wind Speed Wind Dir Waves Ship Positions

National Geographic Sea Bird

Owner: Lindblad Expeditions LLC, SEATTLE, WA. More information available from US FCC via Universal Licensing System and Coast Guard Vessel Documentation Center.

Last reported at 2019-Jun-13 08:34 UTC. Time now 2019-Jun-16 15:04 UTC.
Position N 58°13' W 135°32'.

Length 50 m; draft 2.7 m.

Type: Passenger vessel. MMSI: 366892350.

Date/timePositionNaut miles runAvg speedWind from/ knotsBaromVisibWave heightAir tempDewpointWater temp
2019-Jun-13 08:34N 58°13' W 135°32'2 9.5
2019-Jun-13 08:21N 58°14' W 135°36'4 9.7
2019-Jun-13 07:59N 58°16' W 135°42'4 8.7
2019-Jun-13 07:30N 58°18' W 135°48'4 9.0
2019-Jun-13 07:01N 58°19' W 135°57'4 8.7
2019-Jun-13 06:30N 58°19' W 136°05'8 0.6
2019-Jun-12 15:52N 58°17' W 136°21'410.2
2019-Jun-12 15:27N 58°16' W 136°13'4 7.9
2019-Jun-12 15:00N 58°15' W 136°06'3 6.4
2019-Jun-12 14:30N 58°16' W 136°00'4 8.8
2019-Jun-12 14:00N 58°17' W 135°52'4 8.0
2019-Jun-12 13:30N 58°18' W 135°45'510.3
2019-Jun-12 12:59N 58°16' W 135°35'  
2019-Jun-07 05:32N 58°11' W 135°24'410.1
2019-Jun-07 05:08N 58°13' W 135°31'210.0
2019-Jun-07 04:58N 58°14' W 135°34'510.0
2019-Jun-07 04:29N 58°16' W 135°42'4 8.9
2019-Jun-07 04:00N 58°17' W 135°49'4 8.6
2019-Jun-07 03:30N 58°15' W 135°56'4 8.5
2019-Jun-07 02:59N 58°14' W 136°04'7 8.6
2019-Jun-07 02:11N 58°16' W 136°16'2 8.5
2019-Jun-07 01:58N 58°17' W 136°20'2 0.2
2019-Jun-06 13:53N 58°18' W 136°17'3 8.4
2019-Jun-06 13:30N 58°19' W 136°11'5 9.3
2019-Jun-06 13:00N 58°20' W 136°02'4 8.6
2019-Jun-06 12:30N 58°19' W 135°54'4 7.7
2019-Jun-06 12:00N 58°18' W 135°47'4 8.0
2019-Jun-06 11:30N 58°16' W 135°40'4 8.6
2019-Jun-06 11:00N 58°14' W 135°33'5 9.8
2019-Jun-06 10:29N 58°11' W 135°25'  

Dump ship's entire track history